Yongala, Australia
Current Conditions -  °F | °C
As of 7:00 PM on Monday 20 Oct 2014 (Local Time) from YWHA Reporting Station
Clear Clear  
Wind Chill: 79°   Ceiling: Unl
Heat Index: 79°   Visibility: 6mi
Dew Point: 50°   Wind: 5mph
Humidity: 36%   Direction: 120°ESE
Pressure: 30"   Gusts: NA
Location:  33.03°S, 138.75°E
Report Text: YWHA 200900Z AUTO 12004KT 9999 // NCD 26/10 Q1016
Loading
Personal Weather Stations






























Interactive Weather Map
Tropical Storm Tracking
New forecast layout! Learn more

10-Day Weather Forecast

Advertisements
Track Severe Weather on mobile